createdAt,value
2022-11-25T00:04:57.603Z,2.20
2022-11-25T00:09:59.894Z,2.20
2022-11-25T00:15:02.293Z,2.30
2022-11-25T00:20:06.561Z,2.30
2022-11-25T00:25:09.318Z,2.20
2022-11-25T00:30:11.991Z,2.20
2022-11-25T00:35:14.410Z,2.20
2022-11-25T00:40:17.083Z,2.20
2022-11-25T00:45:19.408Z,2.30
2022-11-25T00:50:21.870Z,2.30
2022-11-25T00:55:24.328Z,2.20
2022-11-25T01:00:26.668Z,2.10
2022-11-25T01:05:28.986Z,2.10
2022-11-25T01:10:31.306Z,2.00
2022-11-25T01:15:37.482Z,1.90
2022-11-25T01:20:39.998Z,2.00
2022-11-25T01:25:42.329Z,2.00
2022-11-25T01:30:44.687Z,1.90
2022-11-25T01:35:48.715Z,1.80
2022-11-25T01:40:51.059Z,1.70
2022-11-25T01:45:57.427Z,1.70
2022-11-25T01:50:59.898Z,1.60
2022-11-25T01:56:04.063Z,1.60
2022-11-25T02:01:09.493Z,1.60
2022-11-25T02:06:21.958Z,1.60
2022-11-25T02:11:28.647Z,1.60
2022-11-25T02:16:31.022Z,1.60
2022-11-25T02:21:49.959Z,1.70
2022-11-25T02:26:52.615Z,1.60
2022-11-25T02:31:56.818Z,1.60
2022-11-25T02:37:01.396Z,1.70
2022-11-25T02:42:08.133Z,1.70
2022-11-25T02:47:10.786Z,1.80
2022-11-25T02:52:14.167Z,1.70
2022-11-25T02:57:17.697Z,1.80
2022-11-25T03:02:20.167Z,1.80
2022-11-25T03:07:22.660Z,1.80
2022-11-25T03:12:25.530Z,1.90
2022-11-25T03:17:28.709Z,1.80
2022-11-25T03:22:31.368Z,1.80
2022-11-25T03:27:34.548Z,1.90
2022-11-25T03:32:37.590Z,1.90
2022-11-25T03:37:41.317Z,1.90
2022-11-25T03:42:44.517Z,1.80
2022-11-25T03:47:47.287Z,1.80
2022-11-25T03:52:49.679Z,1.90
2022-11-25T03:57:53.171Z,1.80
2022-11-25T04:02:56.741Z,1.80
2022-11-25T04:07:59.205Z,1.90
2022-11-25T04:13:02.500Z,1.90
2022-11-25T04:18:11.466Z,1.80
2022-11-25T04:23:15.474Z,1.70
2022-11-25T04:28:29.033Z,1.60
2022-11-25T04:33:32.536Z,1.70
2022-11-25T04:38:35.269Z,1.70
2022-11-25T04:43:39.361Z,1.70
2022-11-25T04:48:46.395Z,1.80
2022-11-25T04:53:50.803Z,1.70
2022-11-25T04:59:11.875Z,1.80
2022-11-25T05:04:21.309Z,1.80
2022-11-25T05:09:24.374Z,1.70
2022-11-25T05:14:38.157Z,1.80
2022-11-25T05:19:41.060Z,1.70
2022-11-25T05:24:44.116Z,2.00
2022-11-25T05:29:52.799Z,1.70
2022-11-25T05:34:59.140Z,1.80
2022-11-25T05:40:01.601Z,1.80
2022-11-25T05:45:27.095Z,1.80
2022-11-25T05:50:29.551Z,1.90
2022-11-25T05:56:04.686Z,1.90
2022-11-25T06:01:25.392Z,1.80
2022-11-25T06:06:28.347Z,1.80
2022-11-25T06:11:30.815Z,1.80
2022-11-25T06:16:33.380Z,1.70
2022-11-25T06:21:45.021Z,1.70
2022-11-25T06:26:48.896Z,1.70
2022-11-25T06:31:51.301Z,1.70
2022-11-25T06:37:09.847Z,1.70
2022-11-25T06:42:12.275Z,1.70
2022-11-25T06:47:14.684Z,1.80
2022-11-25T06:52:17.034Z,2.00
2022-11-25T06:57:19.838Z,1.80
2022-11-25T07:02:22.209Z,1.80
2022-11-25T07:07:24.621Z,1.90
2022-11-25T07:12:27.014Z,2.00
2022-11-25T07:17:29.321Z,1.90
2022-11-25T07:22:31.913Z,1.90
2022-11-25T07:27:34.493Z,1.80
2022-11-25T07:32:36.895Z,2.00
2022-11-25T07:37:39.411Z,2.00
2022-11-25T07:42:41.837Z,2.00
2022-11-25T07:47:45.205Z,2.10
2022-11-25T07:52:47.547Z,2.20
2022-11-25T07:57:49.952Z,2.20
2022-11-25T08:02:53.474Z,2.30
2022-11-25T08:07:56.187Z,2.30
2022-11-25T08:12:58.597Z,2.30
2022-11-25T08:18:00.934Z,2.30
2022-11-25T08:23:03.447Z,2.40
2022-11-25T08:28:06.139Z,2.50
2022-11-25T08:33:08.582Z,2.50
2022-11-25T08:38:15.546Z,2.60
2022-11-25T08:43:18.439Z,2.70
2022-11-25T08:48:21.337Z,2.80
2022-11-25T08:53:23.743Z,2.90
2022-11-25T08:58:26.138Z,2.90
2022-11-25T09:03:32.721Z,3.10
2022-11-25T09:08:35.971Z,2.30
2022-11-25T09:13:38.868Z,2.80
2022-11-25T09:18:41.345Z,2.90
2022-11-25T09:23:44.265Z,2.80
2022-11-25T09:28:47.026Z,3.00
2022-11-25T09:33:49.703Z,2.90
2022-11-25T09:38:52.714Z,3.30
2022-11-25T09:44:30.159Z,3.00
2022-11-25T09:49:47.473Z,3.10
2022-11-25T09:55:12.815Z,3.20
2022-11-25T10:00:18.810Z,3.30
2022-11-25T10:06:04.172Z,3.60
2022-11-25T10:11:30.952Z,3.50
2022-11-25T10:16:38.526Z,3.80
2022-11-25T10:21:41.191Z,3.90
2022-11-25T10:26:46.864Z,3.80
2022-11-25T10:31:52.136Z,3.80
2022-11-25T10:36:57.136Z,3.90
2022-11-25T10:42:20.647Z,3.90
2022-11-25T10:47:56.881Z,3.80
2022-11-25T10:53:12.965Z,4.00
2022-11-25T10:58:35.043Z,4.20
2022-11-25T11:03:37.591Z,4.30
2022-11-25T11:08:43.748Z,4.40
2022-11-25T11:13:47.404Z,4.40
2022-11-25T11:18:51.602Z,4.50
2022-11-25T11:23:55.404Z,4.50
2022-11-25T11:29:15.992Z,4.60
2022-11-25T11:34:48.601Z,4.70
2022-11-25T11:40:18.349Z,4.70
2022-11-25T11:45:49.300Z,4.50
2022-11-25T11:51:02.882Z,4.60
2022-11-25T11:56:34.912Z,4.60
2022-11-25T12:02:14.948Z,4.60
2022-11-25T12:07:40.144Z,4.70
2022-11-25T12:12:50.905Z,4.70
2022-11-25T12:18:01.424Z,4.80
2022-11-25T12:23:28.426Z,4.70
2022-11-25T12:28:39.143Z,4.80
2022-11-25T12:33:56.169Z,4.80
2022-11-25T12:39:17.361Z,4.70
2022-11-25T12:44:19.838Z,4.80
2022-11-25T12:49:46.997Z,4.70
2022-11-25T12:55:06.231Z,5.10
2022-11-25T13:00:41.587Z,4.60
2022-11-25T13:06:06.536Z,4.60
2022-11-25T13:11:33.179Z,4.70
2022-11-25T13:16:36.366Z,4.70
2022-11-25T13:21:56.175Z,5.30
2022-11-25T13:26:58.851Z,4.80
2022-11-25T13:32:08.003Z,4.80
2022-11-25T13:37:36.996Z,4.80
2022-11-25T13:42:44.977Z,4.70
2022-11-25T13:47:49.490Z,4.70
2022-11-25T13:53:01.773Z,4.70
2022-11-25T13:58:09.907Z,4.60
2022-11-25T14:03:21.419Z,4.50
2022-11-25T14:08:55.299Z,4.50
2022-11-25T14:14:17.739Z,4.50
2022-11-25T14:19:54.877Z,4.60
2022-11-25T14:25:05.341Z,4.50
2022-11-25T14:30:10.895Z,4.50
2022-11-25T14:35:25.691Z,4.50
2022-11-25T14:40:54.936Z,4.50
2022-11-25T14:46:17.408Z,4.50
2022-11-25T14:51:20.049Z,4.50
2022-11-25T14:56:33.147Z,4.40
2022-11-25T15:01:38.077Z,4.40
2022-11-25T15:06:42.895Z,4.50
2022-11-25T15:11:45.650Z,4.30
2022-11-25T15:16:48.078Z,4.30
2022-11-25T15:27:26.903Z,4.30
2022-11-25T15:32:33.039Z,4.30
2022-11-25T15:37:37.002Z,4.30
2022-11-25T15:42:42.544Z,4.30
2022-11-25T15:47:45.870Z,4.40
2022-11-25T15:52:53.383Z,4.30
2022-11-25T15:57:58.288Z,4.80
2022-11-25T16:03:01.145Z,4.20
2022-11-25T16:08:26.295Z,4.30
2022-11-25T16:13:31.823Z,4.20
2022-11-25T16:19:06.045Z,4.20
2022-11-25T16:24:14.324Z,4.20
2022-11-25T16:29:19.799Z,4.50
2022-11-25T16:34:24.262Z,4.20
2022-11-25T16:39:26.678Z,4.20
2022-11-25T16:44:29.355Z,4.20
2022-11-25T16:49:32.337Z,4.20
2022-11-25T16:54:34.636Z,4.20
2022-11-25T16:59:40.989Z,4.30
2022-11-25T17:04:43.487Z,4.20
2022-11-25T17:09:46.661Z,4.20
2022-11-25T17:14:49.376Z,4.20
2022-11-25T17:19:52.896Z,4.20
2022-11-25T17:24:57.424Z,4.20
2022-11-25T17:30:03.617Z,4.30
2022-11-25T17:35:16.508Z,4.20
2022-11-25T17:40:18.924Z,4.20
2022-11-25T17:45:22.041Z,4.20
2022-11-25T17:50:26.356Z,4.10
2022-11-25T17:55:28.806Z,4.10
2022-11-25T18:00:33.471Z,4.10
2022-11-25T18:05:35.743Z,4.00
2022-11-25T18:10:38.526Z,4.00
2022-11-25T18:15:41.085Z,4.00
2022-11-25T18:20:43.562Z,4.00
2022-11-25T18:25:46.895Z,4.00
2022-11-25T18:30:50.716Z,3.90
2022-11-25T18:35:53.116Z,4.10
2022-11-25T18:40:55.929Z,4.00
2022-11-25T18:45:58.379Z,4.00
2022-11-25T18:51:01.116Z,3.90
2022-11-25T18:56:04.088Z,3.90
2022-11-25T19:01:12.759Z,3.90
2022-11-25T19:06:15.393Z,3.80
2022-11-25T19:11:26.120Z,3.90
2022-11-25T19:16:28.718Z,3.90
2022-11-25T19:21:31.243Z,4.00
2022-11-25T19:26:41.225Z,3.90
2022-11-25T19:31:43.784Z,3.80
2022-11-25T19:36:46.274Z,3.80
2022-11-25T19:41:48.693Z,3.90
2022-11-25T19:52:30.607Z,3.90
2022-11-25T19:57:32.889Z,3.90
2022-11-25T20:02:35.864Z,3.90
2022-11-25T20:07:47.245Z,3.90
2022-11-25T20:12:50.462Z,3.90
2022-11-25T20:17:56.015Z,3.90
2022-11-25T20:23:15.317Z,3.90
2022-11-25T20:28:26.625Z,3.90
2022-11-25T20:33:28.991Z,3.90
2022-11-25T20:38:33.385Z,4.10
2022-11-25T20:43:39.119Z,3.90
2022-11-25T20:48:42.362Z,3.90
2022-11-25T20:53:53.602Z,4.00
2022-11-25T20:58:56.955Z,4.00
2022-11-25T21:03:59.264Z,3.90
2022-11-25T21:09:02.014Z,3.90
2022-11-25T21:14:06.041Z,4.00
2022-11-25T21:19:08.376Z,3.90
2022-11-25T21:24:31.220Z,4.00
2022-11-25T21:29:36.811Z,3.90
2022-11-25T21:34:41.220Z,4.00
2022-11-25T21:39:43.815Z,4.00
2022-11-25T21:44:47.784Z,4.00
2022-11-25T21:49:50.532Z,4.00
2022-11-25T21:54:52.825Z,4.00
2022-11-25T21:59:55.482Z,4.10
2022-11-25T22:04:58.585Z,4.00
2022-11-25T22:10:00.866Z,4.00
2022-11-25T22:15:03.573Z,4.00
2022-11-25T22:20:20.834Z,3.90
2022-11-25T22:25:25.986Z,3.90
2022-11-25T22:30:28.299Z,3.90
2022-11-25T22:35:30.740Z,4.00
2022-11-25T22:40:33.116Z,3.90
2022-11-25T22:45:35.833Z,4.00
2022-11-25T22:50:38.309Z,3.90
2022-11-25T22:55:41.927Z,3.90
2022-11-25T23:00:46.462Z,3.90
2022-11-25T23:05:51.404Z,3.90
2022-11-25T23:10:54.657Z,3.90
2022-11-25T23:15:59.940Z,4.00
2022-11-25T23:21:02.416Z,4.00
2022-11-25T23:26:06.847Z,4.00
2022-11-25T23:31:14.464Z,4.00
2022-11-25T23:36:28.379Z,4.00
2022-11-25T23:41:33.292Z,3.90
2022-11-25T23:46:37.145Z,3.90
2022-11-25T23:51:39.462Z,3.90
2022-11-25T23:56:42.060Z,4.00
